createdAt,value
2023-02-14T00:00:48.627Z,101065.38
2023-02-14T00:03:15.396Z,101067.13
2023-02-14T00:05:42.022Z,101060.03
2023-02-14T00:08:08.511Z,101060.78
2023-02-14T00:10:35.080Z,101064.84
2023-02-14T00:13:01.679Z,101063.13
2023-02-14T00:15:28.208Z,101069.25
2023-02-14T00:17:59.515Z,101069.72
2023-02-14T00:20:28.111Z,101068.34
2023-02-14T00:22:54.886Z,101064.88
2023-02-14T00:25:21.699Z,101061.28
2023-02-14T00:27:48.359Z,101058.59
2023-02-14T00:30:15.263Z,101060.31
2023-02-14T00:32:42.630Z,101064.56
2023-02-14T00:35:09.944Z,101062.88
2023-02-14T00:37:36.927Z,101066.66
2023-02-14T00:40:05.596Z,101066.38
2023-02-14T00:42:32.102Z,101062.75
2023-02-14T00:44:58.619Z,101071.28
2023-02-14T00:47:25.247Z,101066.50
2023-02-14T00:49:51.812Z,101068.13
2023-02-14T00:52:18.466Z,101063.06
2023-02-14T00:54:45.230Z,101054.53
2023-02-14T00:57:14.027Z,101061.03
2023-02-14T00:59:40.611Z,101055.78
2023-02-14T01:02:07.311Z,101058.38
2023-02-14T01:04:34.387Z,101056.22
2023-02-14T01:07:00.981Z,101059.47
2023-02-14T01:09:27.804Z,101064.13
2023-02-14T01:11:54.323Z,101058.41
2023-02-14T01:14:21.014Z,101059.09
2023-02-14T01:16:49.394Z,101060.44
2023-02-14T01:19:16.694Z,101055.59
2023-02-14T01:21:43.779Z,101056.56
2023-02-14T01:24:12.031Z,101062.03
2023-02-14T01:26:39.393Z,101063.75
2023-02-14T01:29:06.607Z,101052.22
2023-02-14T01:31:35.403Z,101059.97
2023-02-14T01:34:02.616Z,101054.03
2023-02-14T01:36:37.317Z,101046.63
2023-02-14T01:39:10.950Z,101049.22
2023-02-14T01:41:38.900Z,101050.00
2023-02-14T01:44:27.368Z,101050.41
2023-02-14T01:46:55.242Z,101051.09
2023-02-14T01:49:25.415Z,101044.41
2023-02-14T01:52:06.263Z,101047.84
2023-02-14T01:54:36.031Z,101047.06
2023-02-14T01:57:06.437Z,101032.16
2023-02-14T01:59:38.694Z,101040.91
2023-02-14T02:02:06.002Z,101027.88
2023-02-14T02:04:35.754Z,101037.31
2023-02-14T02:07:09.281Z,101032.34
2023-02-14T02:09:43.578Z,101042.06
2023-02-14T02:12:10.407Z,101042.97
2023-02-14T02:14:37.312Z,101045.56
2023-02-14T02:17:16.642Z,101042.19
2023-02-14T02:20:01.965Z,101035.28
2023-02-14T02:23:07.055Z,101039.34
2023-02-14T02:26:17.282Z,101043.66
2023-02-14T02:29:21.855Z,101029.03
2023-02-14T02:31:48.752Z,101041.88
2023-02-14T02:34:30.035Z,101033.41
2023-02-14T02:37:11.723Z,101041.69
2023-02-14T02:40:00.857Z,101035.78
2023-02-14T02:42:54.510Z,101039.28
2023-02-14T02:45:24.035Z,101039.22
2023-02-14T02:48:10.748Z,101039.88
2023-02-14T02:51:00.355Z,101043.69
2023-02-14T02:53:30.160Z,101038.75
2023-02-14T02:56:21.403Z,101038.44
2023-02-14T02:59:00.189Z,101035.16
2023-02-14T03:01:35.380Z,101033.25
2023-02-14T03:04:30.993Z,101041.06
2023-02-14T03:06:59.958Z,101032.44
2023-02-14T03:09:28.119Z,101030.38
2023-02-14T03:12:03.874Z,101031.25
2023-02-14T03:14:39.980Z,101036.69
2023-02-14T03:17:35.869Z,101028.19
2023-02-14T03:20:15.299Z,101025.59
2023-02-14T03:23:12.831Z,101029.59
2023-02-14T03:25:58.326Z,101026.19
2023-02-14T03:28:30.793Z,101028.63
2023-02-14T03:31:06.522Z,101023.66
2023-02-14T03:33:44.226Z,101022.00
2023-02-14T03:36:22.051Z,101020.44
2023-02-14T03:39:21.522Z,101018.75
2023-02-14T03:41:59.792Z,101016.47
2023-02-14T03:44:29.163Z,101025.13
2023-02-14T03:47:00.503Z,101028.59
2023-02-14T03:49:31.958Z,101022.00
2023-02-14T03:52:02.702Z,101024.66
2023-02-14T03:54:32.702Z,101029.22
2023-02-14T03:57:18.187Z,101024.22
2023-02-14T03:59:44.885Z,101020.75
2023-02-14T04:02:11.357Z,101024.47
2023-02-14T04:04:43.894Z,101026.09
2023-02-14T04:07:12.654Z,101024.69
2023-02-14T04:09:39.834Z,101031.81
2023-02-14T04:12:06.887Z,101035.34
2023-02-14T04:14:33.629Z,101036.44
2023-02-14T04:17:18.601Z,101041.78
2023-02-14T04:19:45.151Z,101042.81
2023-02-14T04:22:11.765Z,101039.09
2023-02-14T04:24:38.603Z,101034.56
2023-02-14T04:27:11.179Z,101035.78
2023-02-14T04:29:44.321Z,101037.75
2023-02-14T04:32:13.919Z,101031.78
2023-02-14T04:34:41.064Z,101032.22
2023-02-14T04:37:08.397Z,101043.59
2023-02-14T04:39:35.537Z,101052.47
2023-02-14T04:42:03.453Z,101046.50
2023-02-14T04:44:30.063Z,101040.91
2023-02-14T04:46:56.883Z,101043.59
2023-02-14T04:49:23.489Z,101041.53
2023-02-14T04:51:50.004Z,101049.75
2023-02-14T04:54:16.552Z,101040.91
2023-02-14T04:56:43.208Z,101041.19
2023-02-14T04:59:09.977Z,101039.19
2023-02-14T05:01:36.643Z,101030.47
2023-02-14T05:04:03.807Z,101031.38
2023-02-14T05:06:30.380Z,101025.34
2023-02-14T05:08:57.095Z,101023.97
2023-02-14T05:11:23.627Z,101032.00
2023-02-14T05:13:50.779Z,101028.25
2023-02-14T05:16:17.636Z,101027.00
2023-02-14T05:18:44.281Z,101028.41
2023-02-14T05:21:11.258Z,101026.81
2023-02-14T05:23:38.108Z,101024.91
2023-02-14T05:26:07.057Z,101021.13
2023-02-14T05:28:33.944Z,101022.56
2023-02-14T05:31:00.950Z,101019.09
2023-02-14T05:33:27.997Z,101013.25
2023-02-14T05:35:54.571Z,101017.69
2023-02-14T05:38:21.159Z,101019.09
2023-02-14T05:40:47.711Z,101020.72
2023-02-14T05:43:14.492Z,101020.31
2023-02-14T05:45:41.083Z,101014.81
2023-02-14T05:48:07.727Z,101024.97
2023-02-14T05:50:34.403Z,101018.19
2023-02-14T05:53:01.947Z,101018.94
2023-02-14T05:55:28.647Z,101027.44
2023-02-14T05:57:55.212Z,101012.34
2023-02-14T06:00:23.865Z,101018.03
2023-02-14T06:02:50.821Z,101016.72
2023-02-14T06:05:18.249Z,101018.78
2023-02-14T06:07:50.438Z,101028.53
2023-02-14T06:10:21.752Z,101030.16
2023-02-14T06:12:49.933Z,101025.34
2023-02-14T06:15:16.903Z,101033.41
2023-02-14T06:17:43.819Z,101035.34
2023-02-14T06:20:10.936Z,101042.09
2023-02-14T06:22:39.094Z,101035.56
2023-02-14T06:25:05.892Z,101037.47
2023-02-14T06:27:32.985Z,101041.19
2023-02-14T06:29:59.624Z,101035.16
2023-02-14T06:32:26.408Z,101036.75
2023-02-14T06:34:52.920Z,101039.44
2023-02-14T06:37:20.138Z,101038.31
2023-02-14T06:39:46.733Z,101047.94
2023-02-14T06:42:13.290Z,101044.34
2023-02-14T06:44:39.834Z,101050.06
2023-02-14T06:47:07.938Z,101044.19
2023-02-14T06:49:34.638Z,101041.88
2023-02-14T06:52:01.107Z,101043.78
2023-02-14T06:54:27.655Z,101043.56
2023-02-14T06:56:54.169Z,101040.38
2023-02-14T06:59:20.764Z,101034.00
2023-02-14T07:01:47.357Z,101032.53
2023-02-14T07:04:18.615Z,101042.25
2023-02-14T07:06:48.207Z,101037.00
2023-02-14T07:09:17.734Z,101037.47
2023-02-14T07:11:45.590Z,101035.34
2023-02-14T07:14:12.562Z,101030.47
2023-02-14T07:16:39.504Z,101032.31
2023-02-14T07:19:06.078Z,101029.78
2023-02-14T07:21:32.591Z,101026.59
2023-02-14T07:23:59.105Z,101031.84
2023-02-14T07:26:25.647Z,101036.38
2023-02-14T07:28:52.244Z,101032.22
2023-02-14T07:31:20.058Z,101032.31
2023-02-14T07:33:46.782Z,101039.22
2023-02-14T07:36:13.392Z,101035.59
2023-02-14T07:38:39.889Z,101029.03
2023-02-14T07:41:06.718Z,101028.03
2023-02-14T07:43:34.419Z,101034.31
2023-02-14T07:46:02.758Z,101029.53
2023-02-14T07:48:31.965Z,101033.78
2023-02-14T07:51:00.595Z,101038.22
2023-02-14T07:53:27.360Z,101040.56
2023-02-14T07:55:54.312Z,101039.69
2023-02-14T07:58:20.835Z,101039.00
2023-02-14T08:00:47.630Z,101037.06
2023-02-14T08:03:14.598Z,101034.19
2023-02-14T08:05:41.162Z,101041.41
2023-02-14T08:08:07.761Z,101033.06
2023-02-14T08:10:34.381Z,101032.09
2023-02-14T08:13:01.094Z,101033.06
2023-02-14T08:15:51.917Z,101035.56
2023-02-14T08:18:19.927Z,101038.13
2023-02-14T08:20:49.698Z,101038.16
2023-02-14T08:23:17.810Z,101037.69
2023-02-14T08:25:44.518Z,101040.75
2023-02-14T08:28:13.769Z,101034.56
2023-02-14T08:30:41.722Z,101034.84
2023-02-14T08:33:08.241Z,101033.38
2023-02-14T08:35:35.563Z,101037.34
2023-02-14T08:38:02.213Z,101027.78
2023-02-14T08:40:29.206Z,101025.28
2023-02-14T08:42:55.895Z,101028.63
2023-02-14T08:45:23.066Z,101033.75
2023-02-14T08:47:49.655Z,101037.09
2023-02-14T08:50:17.751Z,101046.72
2023-02-14T08:52:44.517Z,101038.56
2023-02-14T08:55:12.399Z,101035.38
2023-02-14T08:57:39.596Z,101030.38
2023-02-14T09:00:07.686Z,101028.22
2023-02-14T09:02:34.508Z,101028.78
2023-02-14T09:05:01.374Z,101030.72
2023-02-14T09:07:27.922Z,101022.22
2023-02-14T09:09:54.701Z,101027.50
2023-02-14T09:12:21.301Z,101024.88
2023-02-14T09:14:47.896Z,101021.25
2023-02-14T09:17:16.162Z,101022.91
2023-02-14T09:19:43.653Z,101025.00
2023-02-14T09:22:11.448Z,101025.25
2023-02-14T09:24:40.076Z,101022.66
2023-02-14T09:27:07.227Z,101020.38
2023-02-14T09:29:34.262Z,101026.84
2023-02-14T09:32:02.461Z,101020.34
2023-02-14T09:34:35.375Z,101018.59
2023-02-14T09:37:02.185Z,101021.25
2023-02-14T09:39:28.708Z,101021.59
2023-02-14T09:42:15.399Z,101025.91
2023-02-14T09:44:45.232Z,101024.59
2023-02-14T09:47:22.031Z,101026.13
2023-02-14T09:49:50.503Z,101029.16
2023-02-14T09:52:20.840Z,101023.38
2023-02-14T09:54:55.019Z,101027.16
2023-02-14T09:57:28.495Z,101021.91
2023-02-14T10:00:33.810Z,101011.00
2023-02-14T10:03:32.807Z,101009.06
2023-02-14T10:06:14.627Z,101002.91
2023-02-14T10:08:56.481Z,101009.13
2023-02-14T10:11:27.359Z,101003.94
2023-02-14T10:14:03.969Z,100999.84
2023-02-14T10:16:40.337Z,100998.72
2023-02-14T10:19:28.415Z,101007.56
2023-02-14T10:22:00.455Z,101015.19
2023-02-14T10:24:57.391Z,101010.47
2023-02-14T10:27:35.263Z,101012.81
2023-02-14T10:30:12.081Z,101003.72
2023-02-14T10:32:45.937Z,101011.28
2023-02-14T10:35:29.838Z,101001.94
2023-02-14T10:38:02.392Z,101005.88
2023-02-14T10:40:47.726Z,101002.16
2023-02-14T10:43:29.991Z,101011.91
2023-02-14T10:46:02.816Z,101011.56
2023-02-14T10:48:39.339Z,101006.81
2023-02-14T10:51:33.450Z,100997.41
2023-02-14T10:54:06.536Z,100991.88
2023-02-14T10:56:39.723Z,100997.75
2023-02-14T10:59:24.354Z,100991.59
2023-02-14T11:01:56.368Z,100985.69
2023-02-14T11:04:25.416Z,100981.81
2023-02-14T11:06:52.740Z,100976.66
2023-02-14T11:09:20.383Z,100975.19
2023-02-14T11:11:59.075Z,100971.72
2023-02-14T11:14:35.934Z,100971.97
2023-02-14T11:17:30.172Z,100964.22
2023-02-14T11:20:02.638Z,100966.06
2023-02-14T11:22:30.905Z,100965.28
2023-02-14T11:25:05.039Z,100967.13
2023-02-14T11:27:32.184Z,100961.88
2023-02-14T11:30:01.852Z,100958.38
2023-02-14T11:32:31.783Z,100956.88
2023-02-14T11:35:26.911Z,100958.22
2023-02-14T11:37:56.575Z,100955.63
2023-02-14T11:40:28.878Z,100954.84
2023-02-14T11:43:13.337Z,100953.03
2023-02-14T11:45:43.795Z,100955.09
2023-02-14T11:48:37.113Z,100946.13
2023-02-14T11:51:14.636Z,100939.81
2023-02-14T11:53:48.602Z,100931.84
2023-02-14T11:56:17.554Z,100937.22
2023-02-14T11:58:50.299Z,100932.81
2023-02-14T12:01:29.828Z,100923.72
2023-02-14T12:04:00.707Z,100920.78
2023-02-14T12:06:33.989Z,100916.75
2023-02-14T12:09:23.806Z,100908.75
2023-02-14T12:12:14.762Z,100904.31
2023-02-14T12:14:41.451Z,100909.03
2023-02-14T12:17:34.594Z,100899.63
2023-02-14T12:20:15.302Z,100903.16
2023-02-14T12:23:12.897Z,100895.13
2023-02-14T12:25:50.605Z,100889.84
2023-02-14T12:28:25.908Z,100884.00
2023-02-14T12:30:52.644Z,100885.94
2023-02-14T12:33:21.879Z,100891.09
2023-02-14T12:36:09.021Z,100885.59
2023-02-14T12:38:39.426Z,100890.59
2023-02-14T12:41:20.696Z,100882.13
2023-02-14T12:43:50.998Z,100885.59
2023-02-14T12:46:40.332Z,100881.44
2023-02-14T12:49:19.153Z,100873.47
2023-02-14T12:51:56.905Z,100871.94
2023-02-14T12:54:44.918Z,100871.84
2023-02-14T12:57:28.645Z,100869.44
2023-02-14T13:00:14.783Z,100861.44
2023-02-14T13:02:44.592Z,100862.25
2023-02-14T13:05:14.203Z,100859.59
2023-02-14T13:07:46.952Z,100848.28
2023-02-14T13:10:38.480Z,100847.63
2023-02-14T13:13:25.896Z,100842.38
2023-02-14T13:16:06.544Z,100840.94
2023-02-14T13:18:45.364Z,100844.88
2023-02-14T13:21:16.812Z,100840.63
2023-02-14T13:23:48.801Z,100833.06
2023-02-14T13:26:34.887Z,100833.78
2023-02-14T13:29:07.014Z,100833.84
2023-02-14T13:31:34.043Z,100823.47
2023-02-14T13:34:09.750Z,100822.47
2023-02-14T13:36:37.509Z,100829.28
2023-02-14T13:39:04.720Z,100820.75
2023-02-14T13:41:31.749Z,100811.25
2023-02-14T13:44:02.453Z,100815.63
2023-02-14T13:46:32.182Z,100810.06
2023-02-14T13:49:02.373Z,100815.25
2023-02-14T13:52:05.650Z,100800.69
2023-02-14T13:54:46.337Z,100808.53
2023-02-14T13:57:36.536Z,100809.56
2023-02-14T14:00:21.386Z,100814.94
2023-02-14T14:02:52.846Z,100816.13
2023-02-14T14:05:39.532Z,100804.63
2023-02-14T14:08:35.168Z,100810.66
2023-02-14T14:11:21.585Z,100812.38
2023-02-14T14:13:58.475Z,100816.63
2023-02-14T14:16:28.438Z,100806.88
2023-02-14T14:19:17.106Z,100809.69
2023-02-14T14:21:45.474Z,100803.22
2023-02-14T14:24:27.668Z,100804.25
2023-02-14T14:26:57.135Z,100802.88
2023-02-14T14:29:34.923Z,100811.06
2023-02-14T14:32:15.442Z,100798.94
2023-02-14T14:34:56.166Z,100797.16
2023-02-14T14:37:26.237Z,100796.94
2023-02-14T14:40:06.031Z,100800.72
2023-02-14T14:42:37.751Z,100796.94
2023-02-14T14:45:08.506Z,100792.63
2023-02-14T14:47:41.956Z,100788.84
2023-02-14T14:50:34.059Z,100796.66
2023-02-14T14:53:06.743Z,100798.16
2023-02-14T14:55:36.092Z,100794.84
2023-02-14T14:58:06.128Z,100789.59
2023-02-14T15:00:35.456Z,100784.63
2023-02-14T15:03:06.024Z,100785.31
2023-02-14T15:05:39.108Z,100780.22
2023-02-14T15:08:24.549Z,100779.66
2023-02-14T15:11:00.318Z,100774.66
2023-02-14T15:13:49.792Z,100780.66
2023-02-14T15:16:23.136Z,100771.81
2023-02-14T15:18:51.733Z,100774.97
2023-02-14T15:21:18.505Z,100771.41
2023-02-14T15:23:45.886Z,100775.81
2023-02-14T15:26:32.857Z,100777.53
2023-02-14T15:29:02.211Z,100775.75
2023-02-14T15:31:36.785Z,100776.66
2023-02-14T15:34:04.794Z,100776.69
2023-02-14T15:36:33.886Z,100784.25
2023-02-14T15:39:07.981Z,100780.84
2023-02-14T15:41:34.638Z,100784.19
2023-02-14T15:44:01.461Z,100778.03
2023-02-14T15:46:36.212Z,100776.31
2023-02-14T15:49:09.181Z,100778.69
2023-02-14T15:51:36.747Z,100771.88
2023-02-14T15:54:28.254Z,100772.69
2023-02-14T15:56:56.614Z,100778.38
2023-02-14T15:59:29.598Z,100772.63
2023-02-14T16:02:03.766Z,100772.50
2023-02-14T16:04:32.449Z,100770.88
2023-02-14T16:07:32.262Z,100765.44
2023-02-14T16:10:22.430Z,100765.56
2023-02-14T16:12:57.771Z,100762.84
2023-02-14T16:15:27.757Z,100762.44
2023-02-14T16:17:54.379Z,100765.72
2023-02-14T16:20:29.279Z,100773.78
2023-02-14T16:23:23.193Z,100775.06
2023-02-14T16:25:50.207Z,100776.44
2023-02-14T16:28:17.237Z,100785.13
2023-02-14T16:30:45.939Z,100785.47
2023-02-14T16:33:22.617Z,100781.91
2023-02-14T16:35:50.327Z,100783.56
2023-02-14T16:38:19.574Z,100790.66
2023-02-14T16:40:55.448Z,100787.09
2023-02-14T16:43:21.991Z,100783.06
2023-02-14T16:45:49.118Z,100785.09
2023-02-14T16:48:16.070Z,100787.78
2023-02-14T16:50:43.332Z,100789.59
2023-02-14T16:53:24.075Z,100785.03
2023-02-14T16:55:56.221Z,100782.16
2023-02-14T16:58:29.797Z,100788.00
2023-02-14T17:00:58.585Z,100781.25
2023-02-14T17:03:25.434Z,100784.38
2023-02-14T17:05:54.594Z,100779.88
2023-02-14T17:08:21.552Z,100782.88
2023-02-14T17:10:48.789Z,100784.47
2023-02-14T17:13:23.892Z,100792.34
2023-02-14T17:15:51.033Z,100787.63
2023-02-14T17:18:20.404Z,100784.59
2023-02-14T17:20:47.815Z,100801.09
2023-02-14T17:23:15.358Z,100801.69
2023-02-14T17:25:41.997Z,100794.53
2023-02-14T17:28:08.513Z,100789.88
2023-02-14T17:30:35.335Z,100793.25
2023-02-14T17:33:02.053Z,100792.50
2023-02-14T17:35:28.720Z,100789.88
2023-02-14T17:37:55.346Z,100793.41
2023-02-14T17:40:22.007Z,100790.31
2023-02-14T17:42:48.636Z,100788.72
2023-02-14T17:45:15.319Z,100799.81
2023-02-14T17:47:43.340Z,100794.75
2023-02-14T17:50:10.423Z,100795.88
2023-02-14T17:52:37.875Z,100797.47
2023-02-14T17:55:04.896Z,100795.28
2023-02-14T17:57:31.443Z,100800.38
2023-02-14T18:00:01.887Z,100795.00
2023-02-14T18:02:28.629Z,100790.63
2023-02-14T18:04:55.192Z,100797.69
2023-02-14T18:07:23.659Z,100793.34
2023-02-14T18:09:50.652Z,100786.47
2023-02-14T18:12:17.670Z,100788.94
2023-02-14T18:14:44.356Z,100792.78
2023-02-14T18:17:14.041Z,100793.16
2023-02-14T18:19:40.608Z,100792.50
2023-02-14T18:22:07.292Z,100792.78
2023-02-14T18:24:33.890Z,100796.59
2023-02-14T18:27:00.418Z,100796.59
2023-02-14T18:29:26.997Z,100797.09
2023-02-14T18:31:57.137Z,100795.66
2023-02-14T18:34:23.976Z,100788.75
2023-02-14T18:36:50.533Z,100785.09
2023-02-14T18:39:17.353Z,100782.59
2023-02-14T18:41:43.923Z,100782.72
2023-02-14T18:44:10.536Z,100776.06
2023-02-14T18:46:37.466Z,100771.56
2023-02-14T18:49:07.021Z,100767.94
2023-02-14T18:51:37.437Z,100763.13
2023-02-14T18:54:04.676Z,100764.72
2023-02-14T18:56:33.963Z,100764.19
2023-02-14T18:59:07.150Z,100762.88
2023-02-14T19:01:36.761Z,100758.88
2023-02-14T19:04:06.323Z,100750.97
2023-02-14T19:06:34.110Z,100752.00
2023-02-14T19:09:01.644Z,100745.06
2023-02-14T19:11:31.964Z,100744.00
2023-02-14T19:14:00.823Z,100737.84
2023-02-14T19:16:34.106Z,100730.75
2023-02-14T19:19:02.686Z,100729.41
2023-02-14T19:21:31.734Z,100728.19
2023-02-14T19:23:58.683Z,100725.41
2023-02-14T19:26:32.865Z,100717.84
2023-02-14T19:29:00.315Z,100718.03
2023-02-14T19:31:27.769Z,100716.78
2023-02-14T19:33:54.581Z,100712.56
2023-02-14T19:36:22.897Z,100707.78
2023-02-14T19:38:51.723Z,100706.09
2023-02-14T19:41:24.096Z,100708.41
2023-02-14T19:43:52.576Z,100707.19
2023-02-14T19:46:21.111Z,100705.34
2023-02-14T19:48:48.780Z,100702.94
2023-02-14T19:51:27.704Z,100711.72
2023-02-14T19:53:55.894Z,100714.25
2023-02-14T19:56:25.424Z,100710.84
2023-02-14T19:58:52.876Z,100708.19
2023-02-14T20:01:39.370Z,100713.19
2023-02-14T20:04:11.035Z,100716.78
2023-02-14T20:06:38.932Z,100712.47
2023-02-14T20:09:06.470Z,100709.22
2023-02-14T20:11:35.605Z,100714.53
2023-02-14T20:14:04.014Z,100707.88
2023-02-14T20:16:33.239Z,100709.00
2023-02-14T20:19:12.224Z,100705.81
2023-02-14T20:21:41.915Z,100704.31
2023-02-14T20:24:09.508Z,100691.19
2023-02-14T20:26:39.534Z,100694.66
2023-02-14T20:29:07.164Z,100696.06
2023-02-14T20:31:34.510Z,100694.59
2023-02-14T20:34:01.503Z,100696.84
2023-02-14T20:36:28.654Z,100696.25
2023-02-14T20:38:56.479Z,100697.63
2023-02-14T20:41:24.104Z,100697.13
2023-02-14T20:43:50.871Z,100695.34
2023-02-14T20:46:17.799Z,100693.88
2023-02-14T20:48:44.665Z,100697.44
2023-02-14T20:51:16.836Z,100696.69
2023-02-14T20:53:44.846Z,100690.38
2023-02-14T20:56:12.393Z,100692.38
2023-02-14T20:58:40.512Z,100684.41
2023-02-14T21:01:11.583Z,100682.94
2023-02-14T21:03:38.301Z,100682.16
2023-02-14T21:06:06.811Z,100689.06
2023-02-14T21:08:33.963Z,100689.16
2023-02-14T21:11:00.982Z,100680.63
2023-02-14T21:13:27.924Z,100683.63
2023-02-14T21:15:54.805Z,100672.47
2023-02-14T21:18:21.723Z,100678.00
2023-02-14T21:20:48.359Z,100676.63
2023-02-14T21:23:14.981Z,100672.19
2023-02-14T21:25:41.488Z,100669.38
2023-02-14T21:28:08.318Z,100668.56
2023-02-14T21:30:35.209Z,100663.44
2023-02-14T21:33:02.497Z,100662.38
2023-02-14T21:35:29.179Z,100657.59
2023-02-14T21:37:56.018Z,100652.81
2023-02-14T21:40:24.650Z,100646.28
2023-02-14T21:42:51.397Z,100648.03
2023-02-14T21:45:36.762Z,100651.47
2023-02-14T21:48:22.036Z,100643.72
2023-02-14T21:50:48.626Z,100638.22
2023-02-14T21:53:15.430Z,100634.03
2023-02-14T21:55:42.845Z,100632.50
2023-02-14T21:58:09.473Z,100636.22
2023-02-14T22:00:35.996Z,100625.88
2023-02-14T22:03:02.678Z,100625.81
2023-02-14T22:05:29.590Z,100628.13
2023-02-14T22:07:56.120Z,100624.84
2023-02-14T22:10:22.627Z,100620.91
2023-02-14T22:12:49.145Z,100616.59
2023-02-14T22:15:15.853Z,100611.31
2023-02-14T22:17:42.369Z,100617.06
2023-02-14T22:20:10.360Z,100624.38
2023-02-14T22:22:36.917Z,100620.69
2023-02-14T22:25:03.531Z,100631.88
2023-02-14T22:27:30.161Z,100619.06
2023-02-14T22:29:56.675Z,100624.75
2023-02-14T22:32:23.325Z,100623.31
2023-02-14T22:34:49.862Z,100625.56
2023-02-14T22:37:16.359Z,100622.34
2023-02-14T22:39:43.007Z,100637.00
2023-02-14T22:42:10.003Z,100635.19
2023-02-14T22:44:36.505Z,100629.88
2023-02-14T22:47:03.036Z,100622.69
2023-02-14T22:49:29.639Z,100628.75
2023-02-14T22:51:56.142Z,100621.63
2023-02-14T22:54:23.157Z,100616.47
2023-02-14T22:56:53.527Z,100611.72
2023-02-14T22:59:25.439Z,100615.13
2023-02-14T23:01:53.517Z,100609.44
2023-02-14T23:04:21.898Z,100611.06
2023-02-14T23:06:48.923Z,100608.16
2023-02-14T23:09:15.880Z,100615.06
2023-02-14T23:11:44.093Z,100614.19
2023-02-14T23:14:34.260Z,100616.81
2023-02-14T23:17:16.132Z,100616.25
2023-02-14T23:20:02.203Z,100609.00
2023-02-14T23:22:33.328Z,100608.72
2023-02-14T23:25:03.706Z,100614.94
2023-02-14T23:27:35.294Z,100604.41
2023-02-14T23:30:02.988Z,100607.34
2023-02-14T23:32:29.586Z,100603.19
2023-02-14T23:34:56.091Z,100608.16
2023-02-14T23:37:22.595Z,100606.47
2023-02-14T23:39:49.558Z,100594.66
2023-02-14T23:42:16.423Z,100603.22
2023-02-14T23:44:44.268Z,100611.75
2023-02-14T23:47:12.458Z,100608.16
2023-02-14T23:49:40.533Z,100614.13
2023-02-14T23:52:09.635Z,100606.94
2023-02-14T23:54:36.951Z,100606.63
2023-02-14T23:57:04.423Z,100605.25
2023-02-14T23:59:31.426Z,100607.72
